Time;durP1;ratioP1;P1;durP2;ratioP2;P2;SDS_P1;SDS_P2;PMS_P1;PMS_P2;Temp;Humidity;BMP_temperature;BMP_pressure;BME280_temperature;BME280_humidity;BME280_pressure;Samples;Min_cycle;Max_cycle;Signal;HPM_P1;HPM_P2
2021/04/05 00:02:12;;;;;;;26.17;15.68;;;;;;;;;;5016048;28;20034;-51
2021/04/05 00:04:39;;;;;;;22.42;13.18;;;;;;;;;;5016157;28;20105;-51
2021/04/05 00:07:05;;;;;;;20.67;12.10;;;;;;;;;;5016266;28;20080;-51
2021/04/05 00:09:31;;;;;;;25.75;14.02;;;;;;;;;;5016287;28;20379;-48
2021/04/05 00:11:59;;;;;;;24.73;13.23;;;;;;;;;;5016102;28;20029;-50
2021/04/05 00:14:26;;;;;;;21.27;13.10;;;;;;;;;;5016045;28;20057;-51
2021/04/05 00:16:52;;;;;;;17.73;11.90;;;;;;;;;;5015640;28;20589;-50
2021/04/05 00:19:21;;;;;;;24.08;13.05;;;;;;;;;;5015980;28;20064;-50
2021/04/05 00:21:47;;;;;;;20.55;13.18;;;;;;;;;;5016012;28;20029;-48
2021/04/05 00:24:13;;;;;;;28.33;15.50;;;;;;;;;;5015816;28;20485;-50
2021/04/05 00:26:39;;;;;;;24.90;13.45;;;;;;;;;;5015876;28;20032;-51
2021/04/05 00:29:05;;;;;;;34.03;17.20;;;;;;;;;;5015769;28;20029;-52
2021/04/05 00:31:31;;;;;;;35.60;16.90;;;;;;;;;;5015824;28;20018;-49
2021/04/05 00:33:57;;;;;;;46.88;25.27;;;;;;;;;;5015610;28;20026;-49
2021/04/05 00:36:23;;;;;;;42.15;21.10;;;;;;;;;;5015659;28;20018;-50
2021/04/05 00:38:49;;;;;;;36.85;21.00;;;;;;;;;;5015443;28;20022;-52
2021/04/05 00:41:16;;;;;;;62.83;30.45;;;;;;;;;;5015493;28;20387;-50
2021/04/05 00:43:45;;;;;;;63.25;33.00;;;;;;;;;;5015627;28;20390;-50
2021/04/05 00:46:15;;;;;;;84.43;41.72;;;;;;;;;;5015478;28;20105;-50
2021/04/05 00:48:43;;;;;;;57.97;29.38;;;;;;;;;;5015390;28;20030;-50
2021/04/05 00:51:12;;;;;;;52.75;27.52;;;;;;;;;;5015527;28;20058;-49
2021/04/05 00:53:39;;;;;;;59.58;28.67;;;;;;;;;;5015238;28;20026;-47
2021/04/05 00:56:06;;;;;;;54.80;28.02;;;;;;;;;;5015643;28;20076;-52
2021/04/05 00:58:32;;;;;;;56.33;30.98;;;;;;;;;;5015295;28;20034;-51
2021/04/05 01:01:01;;;;;;;49.30;25.73;;;;;;;;;;5015190;28;20030;-51
2021/04/05 01:03:27;;;;;;;50.28;25.65;;;;;;;;;;5014980;28;20050;-49
2021/04/05 01:05:58;;;;;;;51.05;25.85;;;;;;;;;;5015165;28;20018;-52
2021/04/05 01:08:24;;;;;;;58.30;29.92;;;;;;;;;;5015106;28;20104;-51
2021/04/05 01:10:50;;;;;;;41.80;22.63;;;;;;;;;;5015087;28;20493;-51
2021/04/05 01:13:17;;;;;;;36.50;21.05;;;;;;;;;;5015115;28;20033;-51
2021/04/05 01:15:43;;;;;;;46.90;26.00;;;;;;;;;;5014678;28;20481;-51
2021/04/05 01:18:10;;;;;;;52.85;27.23;;;;;;;;;;5014944;28;20030;-51
2021/04/05 01:20:36;;;;;;;45.15;23.38;;;;;;;;;;5014868;28;20026;-50
2021/04/05 01:23:03;;;;;;;54.88;29.13;;;;;;;;;;5014745;28;20040;-50
2021/04/05 01:25:29;;;;;;;55.17;29.92;;;;;;;;;;5014935;28;20026;-51
2021/04/05 01:27:56;;;;;;;61.42;31.67;;;;;;;;;;5014265;28;20030;-50
2021/04/05 01:30:36;;;;;;;58.20;29.92;;;;;;;;;;4996806;28;20390;-50
2021/04/05 01:33:07;;;;;;;53.60;27.17;;;;;;;;;;5014693;28;20469;-49
2021/04/05 01:35:42;;;;;;;51.13;26.08;;;;;;;;;;5014702;28;20018;-50
2021/04/05 01:38:09;;;;;;;43.53;22.55;;;;;;;;;;5014646;28;20083;-51
2021/04/05 01:40:36;;;;;;;38.97;22.52;;;;;;;;;;5014536;28;20030;-50
2021/04/05 01:43:02;;;;;;;36.60;21.60;;;;;;;;;;5014543;28;20034;-50
2021/04/05 01:45:30;;;;;;;40.75;22.90;;;;;;;;;;5014609;28;20058;-50
2021/04/05 01:47:56;;;;;;;38.70;21.85;;;;;;;;;;5014724;28;20033;-52
2021/04/05 01:50:22;;;;;;;31.27;19.08;;;;;;;;;;5014714;28;20045;-51
2021/04/05 01:52:48;;;;;;;41.00;21.63;;;;;;;;;;5014296;28;20080;-51
2021/04/05 01:55:15;;;;;;;36.00;19.92;;;;;;;;;;5014643;28;20029;-48
2021/04/05 01:57:43;;;;;;;41.90;21.50;;;;;;;;;;5014661;28;20033;-54
2021/04/05 02:00:14;;;;;;;37.83;20.45;;;;;;;;;;5014334;28;20044;-49
2021/04/05 02:02:41;;;;;;;35.83;19.38;;;;;;;;;;5014440;28;20125;-51
2021/04/05 02:05:10;;;;;;;26.65;15.40;;;;;;;;;;5014336;28;20032;-50
2021/04/05 02:07:37;;;;;;;30.10;16.70;;;;;;;;;;5014147;28;20026;-50
2021/04/05 02:10:11;;;;;;;28.45;16.13;;;;;;;;;;5014237;28;20386;-48
2021/04/05 02:12:38;;;;;;;24.55;15.10;;;;;;;;;;5013958;28;20087;-50
2021/04/05 02:15:08;;;;;;;28.45;15.65;;;;;;;;;;5014161;28;20417;-49
2021/04/05 02:17:35;;;;;;;29.08;17.30;;;;;;;;;;5013784;28;20049;-50
2021/04/05 02:20:01;;;;;;;31.17;14.98;;;;;;;;;;5014037;28;20022;-50
2021/04/05 02:22:28;;;;;;;37.30;17.35;;;;;;;;;;5013879;28;20042;-51
2021/04/05 02:24:54;;;;;;;32.45;16.13;;;;;;;;;;5013811;28;20405;-49
2021/04/05 02:27:23;;;;;;;27.02;16.10;;;;;;;;;;5013759;28;20032;-51
2021/04/05 02:29:51;;;;;;;27.45;15.35;;;;;;;;;;5013792;28;20022;-51
2021/04/05 02:32:17;;;;;;;23.52;13.75;;;;;;;;;;5013888;28;20028;-51
2021/04/05 02:34:43;;;;;;;24.65;14.75;;;;;;;;;;5013717;28;20081;-49
2021/04/05 02:37:12;;;;;;;28.45;14.30;;;;;;;;;;5013715;28;20434;-51
2021/04/05 02:39:38;;;;;;;33.15;14.73;;;;;;;;;;5012919;28;20080;-51
2021/04/05 02:42:05;;;;;;;29.17;16.40;;;;;;;;;;5013273;28;20105;-48
2021/04/05 02:44:31;;;;;;;27.52;14.00;;;;;;;;;;5013685;28;20027;-51
2021/04/05 02:46:57;;;;;;;25.42;14.93;;;;;;;;;;5013590;28;20034;-50
2021/04/05 02:49:24;;;;;;;28.10;15.60;;;;;;;;;;5013704;28;20022;-51
2021/04/05 02:51:50;;;;;;;36.70;17.08;;;;;;;;;;5013588;28;20061;-54
2021/04/05 02:54:22;;;;;;;32.22;18.73;;;;;;;;;;5013592;28;20026;-51
2021/04/05 02:56:49;;;;;;;31.85;18.23;;;;;;;;;;5013426;28;20018;-51
2021/04/05 02:59:20;;;;;;;31.67;16.52;;;;;;;;;;5013694;28;20380;-52
2021/04/05 03:01:47;;;;;;;31.80;16.05;;;;;;;;;;5013777;28;20022;-49
2021/04/05 03:04:15;;;;;;;32.75;16.00;;;;;;;;;;5013395;28;20037;-49
2021/04/05 03:06:41;;;;;;;27.67;15.40;;;;;;;;;;5013410;28;20054;-49
2021/04/05 03:09:07;;;;;;;23.95;13.82;;;;;;;;;;5013468;28;20085;-49
2021/04/05 03:11:35;;;;;;;19.92;12.27;;;;;;;;;;5013270;28;20433;-50
2021/04/05 03:14:02;;;;;;;21.67;12.20;;;;;;;;;;5013581;28;20077;-49
2021/04/05 03:16:29;;;;;;;20.23;11.63;;;;;;;;;;5013058;28;20453;-49
2021/04/05 03:18:57;;;;;;;20.20;11.73;;;;;;;;;;5013516;28;20113;-50
2021/04/05 03:21:24;;;;;;;18.95;11.85;;;;;;;;;;5013359;28;20018;-48
2021/04/05 03:23:51;;;;;;;20.50;11.77;;;;;;;;;;5013686;28;20033;-49
2021/04/05 03:26:17;;;;;;;27.70;12.13;;;;;;;;;;4995624;28;20026;-49
2021/04/05 03:28:43;;;;;;;22.08;12.05;;;;;;;;;;5013279;28;20053;-48
2021/04/05 03:31:19;;;;;;;18.70;11.18;;;;;;;;;;5013170;28;20101;-50
2021/04/05 03:33:51;;;;;;;18.20;10.95;;;;;;;;;;5013215;28;20040;-50
2021/04/05 03:36:22;;;;;;;17.10;10.48;;;;;;;;;;5013197;28;20030;-52
2021/04/05 03:38:48;;;;;;;18.23;10.70;;;;;;;;;;5013114;28;20025;-51
2021/04/05 03:41:38;;;;;;;19.63;10.18;;;;;;;;;;5013219;28;20104;-51
2021/04/05 03:44:13;;;;;;;25.95;10.10;;;;;;;;;;4914648;28;20052;-50
2021/04/05 03:46:41;;;;;;;20.83;11.07;;;;;;;;;;4914651;29;20127;-51
2021/04/05 03:49:25;;;;;;;17.92;10.23;;;;;;;;;;4914561;29;20051;-50
2021/04/05 03:52:07;;;;;;;23.63;11.48;;;;;;;;;;4916007;29;20444;-51
2021/04/05 03:54:36;;;;;;;23.58;11.27;;;;;;;;;;4917952;29;20481;-50
2021/04/05 03:57:02;;;;;;;19.67;11.43;;;;;;;;;;4917987;29;20067;-51
2021/04/05 03:59:31;;;;;;;20.90;10.85;;;;;;;;;;4918125;29;20035;-50
2021/04/05 04:01:59;;;;;;;23.02;10.98;;;;;;;;;;4917830;29;20132;-50
2021/04/05 04:04:43;;;;;;;17.60;9.77;;;;;;;;;;4917972;29;20036;-50
2021/04/05 04:07:15;;;;;;;18.75;10.02;;;;;;;;;;4917763;29;20463;-50
2021/04/05 04:09:42;;;;;;;20.33;11.13;;;;;;;;;;4917697;29;20382;-50
2021/04/05 04:12:11;;;;;;;32.92;11.02;;;;;;;;;;4917699;29;20032;-49
2021/04/05 04:14:38;;;;;;;24.13;11.10;;;;;;;;;;4917854;28;20036;-51
2021/04/05 04:17:07;;;;;;;21.38;10.75;;;;;;;;;;4917448;29;20060;-51
2021/04/05 04:19:34;;;;;;;27.08;13.23;;;;;;;;;;4917531;29;20079;-50
2021/04/05 04:22:01;;;;;;;27.52;13.00;;;;;;;;;;5006822;28;20046;-50
2021/04/05 04:24:28;;;;;;;32.22;14.05;;;;;;;;;;5015897;28;20429;-50
2021/04/05 04:26:54;;;;;;;31.15;13.60;;;;;;;;;;4998040;28;20038;-50
2021/04/05 04:29:22;;;;;;;31.45;13.98;;;;;;;;;;5016304;28;20034;-50
2021/04/05 04:31:48;;;;;;;28.38;14.85;;;;;;;;;;5015799;28;20533;-49
2021/04/05 04:34:17;;;;;;;33.25;15.90;;;;;;;;;;5015793;28;20034;-49
2021/04/05 04:36:43;;;;;;;28.83;15.82;;;;;;;;;;5016071;28;20025;-50
2021/04/05 04:39:10;;;;;;;35.38;16.30;;;;;;;;;;5015782;28;20129;-51
2021/04/05 04:41:37;;;;;;;36.85;16.85;;;;;;;;;;5015916;28;20029;-53
2021/04/05 04:44:04;;;;;;;33.13;17.83;;;;;;;;;;5015723;28;20030;-48
2021/04/05 04:46:30;;;;;;;37.08;19.00;;;;;;;;;;5015484;28;20034;-50
2021/04/05 04:48:57;;;;;;;41.45;20.23;;;;;;;;;;5015685;28;20026;-49
2021/04/05 04:51:23;;;;;;;47.13;22.27;;;;;;;;;;5015594;28;20048;-50
2021/04/05 04:53:50;;;;;;;44.35;19.42;;;;;;;;;;5015352;28;20084;-51
2021/04/05 04:56:16;;;;;;;35.10;17.70;;;;;;;;;;5015455;28;20109;-51
2021/04/05 04:58:45;;;;;;;35.15;16.85;;;;;;;;;;5015600;28;20025;-50
2021/04/05 05:01:12;;;;;;;35.03;15.70;;;;;;;;;;5015485;28;20394;-51
2021/04/05 05:03:44;;;;;;;34.95;19.45;;;;;;;;;;5014301;28;20033;-50
2021/04/05 05:06:13;;;;;;;40.28;25.90;;;;;;;;;;5015224;28;20030;-51
2021/04/05 05:08:39;;;;;;;36.58;20.83;;;;;;;;;;5015083;28;20386;-50
2021/04/05 05:11:06;;;;;;;37.15;20.85;;;;;;;;;;5015077;28;20064;-50
2021/04/05 05:13:32;;;;;;;36.33;20.13;;;;;;;;;;5015385;28;20079;-49
2021/04/05 05:15:58;;;;;;;35.20;17.45;;;;;;;;;;5014882;28;20104;-49
2021/04/05 05:18:25;;;;;;;38.33;18.58;;;;;;;;;;5014920;28;20125;-49
2021/04/05 05:20:53;;;;;;;37.63;21.23;;;;;;;;;;5014959;28;20033;-51
2021/04/05 05:23:20;;;;;;;53.22;28.33;;;;;;;;;;5014871;28;20091;-51
2021/04/05 05:25:47;;;;;;;42.70;25.77;;;;;;;;;;5014791;28;20029;-51
2021/04/05 05:28:13;;;;;;;39.58;23.92;;;;;;;;;;5015001;28;20488;-50
2021/04/05 05:30:41;;;;;;;48.45;27.88;;;;;;;;;;5014705;28;20188;-52
2021/04/05 05:33:08;;;;;;;43.42;25.88;;;;;;;;;;5014858;28;20041;-51
2021/04/05 05:35:35;;;;;;;32.92;17.58;;;;;;;;;;5014822;28;20497;-52
2021/04/05 05:38:05;;;;;;;38.15;23.35;;;;;;;;;;5014507;28;20125;-52
2021/04/05 05:40:32;;;;;;;36.75;22.25;;;;;;;;;;5014640;28;20026;-53
2021/04/05 05:43:04;;;;;;;38.78;20.60;;;;;;;;;;5014991;28;20136;-51
2021/04/05 05:45:33;;;;;;;63.30;34.05;;;;;;;;;;5014401;28;20042;-52
2021/04/05 05:47:59;;;;;;;43.00;26.00;;;;;;;;;;5014534;28;20033;-53
2021/04/05 05:50:28;;;;;;;40.97;22.40;;;;;;;;;;5014519;28;20030;-53
2021/04/05 05:53:06;;;;;;;35.33;20.17;;;;;;;;;;5014462;28;20108;-48
2021/04/05 05:55:53;;;;;;;41.03;22.40;;;;;;;;;;5014249;28;20156;-51
2021/04/05 05:58:29;;;;;;;31.00;19.42;;;;;;;;;;5014415;28;20149;-51
2021/04/05 06:01:22;;;;;;;40.92;22.38;;;;;;;;;;5014462;28;20022;-51
2021/04/05 06:04:06;;;;;;;45.05;25.73;;;;;;;;;;4977168;28;20132;-50
2021/04/05 06:06:50;;;;;;;84.15;49.78;;;;;;;;;;5014296;28;20026;-49
2021/04/05 06:09:21;;;;;;;54.63;27.38;;;;;;;;;;5014041;28;20049;-49
2021/04/05 06:12:06;;;;;;;48.70;23.52;;;;;;;;;;5014082;28;20486;-47
2021/04/05 06:14:47;;;;;;;39.45;21.92;;;;;;;;;;5013932;28;20474;-50
2021/04/05 06:17:23;;;;;;;40.20;22.70;;;;;;;;;;5013663;28;20104;-49
2021/04/05 06:19:54;;;;;;;36.67;21.20;;;;;;;;;;5013915;28;20352;-49
2021/04/05 06:22:23;;;;;;;35.42;20.58;;;;;;;;;;5013883;28;20521;-49
2021/04/05 06:24:52;;;;;;;34.70;18.80;;;;;;;;;;5013659;28;20426;-50
2021/04/05 06:27:29;;;;;;;32.35;18.00;;;;;;;;;;5014045;28;20502;-51
2021/04/05 06:30:04;;;;;;;35.15;20.75;;;;;;;;;;5013942;28;20022;-50
2021/04/05 06:32:47;;;;;;;33.08;19.50;;;;;;;;;;5013861;28;20022;-51
2021/04/05 06:35:31;;;;;;;33.17;16.40;;;;;;;;;;5013535;28;20028;-52
2021/04/05 06:37:59;;;;;;;24.92;15.63;;;;;;;;;;5013670;28;20070;-51
2021/04/05 06:40:26;;;;;;;42.20;26.33;;;;;;;;;;5013547;28;20109;-48
2021/04/05 06:43:04;;;;;;;35.65;23.00;;;;;;;;;;5013581;28;20073;-51
2021/04/05 06:45:39;;;;;;;56.03;34.58;;;;;;;;;;5013270;28;20034;-49
2021/04/05 06:48:24;;;;;;;66.90;37.15;;;;;;;;;;5013830;28;20038;-49
2021/04/05 06:50:56;;;;;;;39.50;24.58;;;;;;;;;;5013615;28;20030;-49
2021/04/05 06:53:22;;;;;;;36.70;19.83;;;;;;;;;;5013474;28;20389;-49
2021/04/05 06:55:51;;;;;;;43.05;24.77;;;;;;;;;;5013456;28;20018;-50
2021/04/05 06:58:18;;;;;;;53.08;31.73;;;;;;;;;;5013443;28;20081;-51
2021/04/05 07:01:03;;;;;;;36.47;19.80;;;;;;;;;;5013549;28;20385;-52
2021/04/05 07:03:40;;;;;;;33.95;18.63;;;;;;;;;;5013351;28;20092;-51
2021/04/05 07:06:18;;;;;;;45.65;25.42;;;;;;;;;;5013385;28;20496;-50
2021/04/05 07:08:54;;;;;;;28.50;17.40;;;;;;;;;;5013104;28;20030;-50
2021/04/05 07:11:28;;;;;;;22.42;14.63;;;;;;;;;;5013252;28;20478;-51
2021/04/05 07:14:13;;;;;;;39.75;22.65;;;;;;;;;;5013384;28;20088;-49
2021/04/05 07:16:58;;;;;;;38.35;19.13;;;;;;;;;;5012921;28;20055;-51
2021/04/05 07:19:42;;;;;;;35.50;22.58;;;;;;;;;;5013200;28;20026;-49
2021/04/05 07:22:14;;;;;;;32.00;18.70;;;;;;;;;;5013308;28;20445;-49
2021/04/05 07:24:40;;;;;;;25.10;12.80;;;;;;;;;;5013178;28;20034;-50
2021/04/05 07:27:09;;;;;;;35.80;21.15;;;;;;;;;;5015086;28;20500;-50
2021/04/05 07:29:35;;;;;;;46.97;24.80;;;;;;;;;;5016961;28;20052;-50
2021/04/05 07:32:06;;;;;;;35.67;19.05;;;;;;;;;;5016889;28;20025;-49
2021/04/05 07:34:32;;;;;;;37.15;21.55;;;;;;;;;;5016951;28;20022;-50
2021/04/05 07:37:11;;;;;;;34.45;19.85;;;;;;;;;;5016234;28;20104;-47
2021/04/05 07:39:41;;;;;;;49.63;27.63;;;;;;;;;;5016195;28;20029;-48
2021/04/05 07:42:13;;;;;;;78.68;43.78;;;;;;;;;;5010761;28;20109;-51
2021/04/05 07:44:42;;;;;;;82.05;42.78;;;;;;;;;;5007762;28;20096;-52
2021/04/05 07:47:14;;;;;;;81.30;42.90;;;;;;;;;;5005787;28;20471;-52
2021/04/05 07:50:03;;;;;;;41.35;23.85;;;;;;;;;;5004911;28;20037;-49
2021/04/05 07:52:49;;;;;;;81.73;43.87;;;;;;;;;;5006151;28;20034;-47
2021/04/05 07:55:16;;;;;;;70.32;41.65;;;;;;;;;;5006315;28;20025;-50
2021/04/05 07:57:59;;;;;;;67.72;36.63;;;;;;;;;;5005056;28;20022;-51
2021/04/05 08:00:41;;;;;;;96.10;53.97;;;;;;;;;;5005258;28;20046;-49
2021/04/05 08:03:22;;;;;;;35.15;19.60;;;;;;;;;;5005232;28;20069;-49
2021/04/05 08:06:08;;;;;;;159.75;88.00;;;;;;;;;;5005685;28;20025;-54
2021/04/05 08:08:34;;;;;;;100.85;50.95;;;;;;;;;;5005935;28;20052;-49
2021/04/05 08:11:08;;;;;;;40.90;21.25;;;;;;;;;;5004338;28;20022;-50
2021/04/05 08:13:43;;;;;;;13.93;7.47;;;;;;;;;;5003948;28;20061;-50
2021/04/05 08:16:14;;;;;;;73.10;40.30;;;;;;;;;;5004126;28;20559;-49
2021/04/05 08:18:59;;;;;;;34.42;17.00;;;;;;;;;;4988742;28;20406;-50
2021/04/05 08:21:36;;;;;;;61.17;31.48;;;;;;;;;;5004886;28;20030;-51
2021/04/05 08:24:14;;;;;;;25.63;15.55;;;;;;;;;;5004262;28;20122;-50
2021/04/05 08:26:46;;;;;;;25.13;13.48;;;;;;;;;;5009286;28;20041;-49
2021/04/05 08:29:23;;;;;;;20.08;13.25;;;;;;;;;;5015576;28;20485;-49
2021/04/05 08:31:58;;;;;;;16.35;10.07;;;;;;;;;;5015770;28;20036;-52
2021/04/05 08:34:35;;;;;;;57.78;31.40;;;;;;;;;;5015839;28;20029;-48
2021/04/05 08:37:19;;;;;;;40.63;24.52;;;;;;;;;;5015483;28;20485;-49
2021/04/05 08:39:56;;;;;;;51.83;29.92;;;;;;;;;;5001585;28;20459;-47
2021/04/05 08:42:41;;;;;;;51.30;25.70;;;;;;;;;;4998451;28;20025;-48
2021/04/05 08:45:07;;;;;;;28.15;15.27;;;;;;;;;;4998035;28;20029;-50
2021/04/05 08:47:33;;;;;;;30.70;18.00;;;;;;;;;;4998522;28;20022;-48
2021/04/05 08:50:04;;;;;;;28.85;13.30;;;;;;;;;;4997203;28;20030;-49
2021/04/05 08:52:32;;;;;;;43.00;17.45;;;;;;;;;;4998547;28;20017;-51
2021/04/05 08:55:02;;;;;;;14.95;9.00;;;;;;;;;;4997911;28;20105;-49
2021/04/05 08:57:30;;;;;;;28.45;13.68;;;;;;;;;;4998002;28;20018;-49
2021/04/05 09:00:00;;;;;;;31.42;17.35;;;;;;;;;;4997099;28;20485;-49
2021/04/05 09:02:40;;;;;;;129.48;78.90;;;;;;;;;;4997632;28;20038;-48
2021/04/05 09:05:26;;;;;;;18.33;11.85;;;;;;;;;;4997946;28;20068;-46
2021/04/05 09:07:55;;;;;;;15.15;8.65;;;;;;;;;;4998357;28;20025;-51
2021/04/05 09:10:24;;;;;;;13.77;8.70;;;;;;;;;;4998369;28;20121;-51
2021/04/05 09:12:51;;;;;;;21.98;13.60;;;;;;;;;;4996887;28;20428;-49
2021/04/05 09:15:31;;;;;;;16.88;10.63;;;;;;;;;;4997875;28;20038;-52
2021/04/05 09:18:16;;;;;;;71.80;37.53;;;;;;;;;;4997990;28;20064;-50
2021/04/05 09:20:42;;;;;;;28.63;17.25;;;;;;;;;;4997655;28;20404;-49
2021/04/05 09:23:20;;;;;;;27.42;16.58;;;;;;;;;;4997798;28;20037;-48
2021/04/05 09:26:12;;;;;;;42.72;22.13;;;;;;;;;;4996620;28;20018;-50
2021/04/05 09:28:45;;;;;;;48.95;24.70;;;;;;;;;;4994394;28;20856;-49
2021/04/05 09:31:29;;;;;;;34.72;19.50;;;;;;;;;;4996983;28;20022;-51
2021/04/05 09:34:14;;;;;;;20.92;11.90;;;;;;;;;;4996870;28;20025;-52
2021/04/05 09:36:40;;;;;;;15.20;7.72;;;;;;;;;;4997498;28;20033;-48
2021/04/05 09:39:06;;;;;;;25.40;13.45;;;;;;;;;;4997526;28;20026;-51
2021/04/05 09:41:34;;;;;;;70.35;40.45;;;;;;;;;;4997425;28;20029;-51
2021/04/05 09:44:10;;;;;;;22.23;14.48;;;;;;;;;;4997121;28;20101;-48
2021/04/05 09:47:08;;;;;;;79.47;45.38;;;;;;;;;;4997389;28;20034;-48
2021/04/05 09:49:43;;;;;;;20.77;13.25;;;;;;;;;;4898049;29;20583;-47
2021/04/05 09:52:28;;;;;;;16.40;8.48;;;;;;;;;;4898431;29;20028;-50
2021/04/05 09:55:04;;;;;;;21.70;12.45;;;;;;;;;;4898278;29;20496;-50
2021/04/05 09:57:33;;;;;;;11.95;8.25;;;;;;;;;;4898377;29;21124;-49
2021/04/05 09:59:59;;;;;;;20.42;12.23;;;;;;;;;;4898292;29;20043;-50
2021/04/05 10:02:36;;;;;;;47.63;26.42;;;;;;;;;;4898157;29;20031;-48
2021/04/05 10:05:02;;;;;;;19.90;13.27;;;;;;;;;;4896746;29;20039;-48
2021/04/05 10:07:29;;;;;;;58.38;32.35;;;;;;;;;;4897928;29;20062;-48
2021/04/05 10:09:58;;;;;;;17.92;11.40;;;;;;;;;;4897935;29;20566;-49
2021/04/05 10:12:25;;;;;;;35.55;23.52;;;;;;;;;;4898136;29;20679;-48
2021/04/05 10:14:52;;;;;;;19.08;11.35;;;;;;;;;;4897915;29;20083;-50
2021/04/05 10:17:24;;;;;;;30.90;17.42;;;;;;;;;;4897900;29;20460;-51
2021/04/05 10:19:53;;;;;;;36.13;19.52;;;;;;;;;;4897573;29;20074;-51
2021/04/05 10:22:20;;;;;;;22.40;12.30;;;;;;;;;;4897768;29;20039;-50
2021/04/05 10:24:49;;;;;;;12.30;7.75;;;;;;;;;;4897688;29;20359;-51
2021/04/05 10:27:17;;;;;;;17.73;10.68;;;;;;;;;;4976977;28;20033;-49
2021/04/05 10:29:44;;;;;;;11.75;8.85;;;;;;;;;;4977020;28;20128;-49
2021/04/05 10:32:13;;;;;;;10.98;8.27;;;;;;;;;;4976884;28;20023;-48
2021/04/05 10:34:43;;;;;;;15.10;9.00;;;;;;;;;;4976036;28;20026;-49
2021/04/05 10:37:10;;;;;;;15.15;9.25;;;;;;;;;;4976894;28;20137;-50
2021/04/05 10:39:38;;;;;;;12.05;8.00;;;;;;;;;;4977030;28;20359;-52
2021/04/05 10:42:20;;;;;;;9.88;7.68;;;;;;;;;;4976647;28;20573;-52
2021/04/05 10:44:47;;;;;;;14.35;8.65;;;;;;;;;;4976822;28;20851;-53
2021/04/05 10:47:22;;;;;;;34.45;18.55;;;;;;;;;;4976852;28;20053;-51
2021/04/05 10:49:50;;;;;;;15.25;9.45;;;;;;;;;;4977028;28;20034;-50
2021/04/05 10:52:19;;;;;;;14.55;8.95;;;;;;;;;;4976776;28;20027;-53
2021/04/05 10:54:51;;;;;;;17.85;9.00;;;;;;;;;;4976643;28;20150;-50
2021/04/05 10:57:40;;;;;;;13.50;8.57;;;;;;;;;;4976600;28;20037;-52
2021/04/05 11:00:07;;;;;;;23.55;8.77;;;;;;;;;;4976238;28;20100;-51
2021/04/05 11:02:52;;;;;;;11.50;7.55;;;;;;;;;;4978086;28;20097;-52
2021/04/05 11:05:20;;;;;;;15.52;8.55;;;;;;;;;;4980969;28;20034;-52
2021/04/05 11:07:47;;;;;;;11.70;8.77;;;;;;;;;;4980511;28;20030;-53
2021/04/05 11:10:20;;;;;;;10.73;8.60;;;;;;;;;;4980412;28;20106;-52
2021/04/05 11:12:50;;;;;;;9.95;7.18;;;;;;;;;;4980690;28;20841;-52
2021/04/05 11:15:19;;;;;;;10.35;7.35;;;;;;;;;;4980621;28;20130;-52
2021/04/05 11:17:50;;;;;;;11.60;6.32;;;;;;;;;;4997758;28;20153;-48
2021/04/05 11:20:18;;;;;;;75.35;52.35;;;;;;;;;;5000072;28;20025;-50
2021/04/05 11:22:44;;;;;;;39.90;24.35;;;;;;;;;;5000139;28;20033;-49
2021/04/05 11:25:18;;;;;;;49.05;26.60;;;;;;;;;;4999960;28;20218;-49
2021/04/05 11:27:48;;;;;;;26.92;15.43;;;;;;;;;;4999864;28;20037;-48
2021/04/05 11:30:23;;;;;;;33.03;19.05;;;;;;;;;;4998857;28;20033;-48
2021/04/05 11:32:50;;;;;;;27.83;14.88;;;;;;;;;;4981643;28;20537;-50
2021/04/05 11:35:19;;;;;;;32.00;20.83;;;;;;;;;;4999835;28;20176;-47
2021/04/05 11:37:47;;;;;;;22.45;12.80;;;;;;;;;;4999827;28;20028;-49
2021/04/05 11:40:14;;;;;;;51.38;25.48;;;;;;;;;;4999872;28;20316;-49
2021/04/05 11:42:46;;;;;;;93.85;49.22;;;;;;;;;;4999684;28;20034;-49
2021/04/05 11:45:17;;;;;;;35.83;21.80;;;;;;;;;;4999762;28;20822;-48
2021/04/05 11:47:51;;;;;;;21.15;12.85;;;;;;;;;;4998799;28;20033;-48
2021/04/05 11:50:21;;;;;;;27.17;15.27;;;;;;;;;;4999424;28;20026;-47
2021/04/05 11:52:47;;;;;;;23.73;14.45;;;;;;;;;;4998679;28;20053;-48
2021/04/05 11:55:18;;;;;;;12.88;9.43;;;;;;;;;;4999387;28;20046;-48
2021/04/05 11:57:57;;;;;;;16.95;11.35;;;;;;;;;;4999725;28;20100;-49
2021/04/05 12:00:44;;;;;;;10.63;8.13;;;;;;;;;;4999372;28;20037;-49
2021/04/05 12:03:30;;;;;;;19.80;10.80;;;;;;;;;;4999440;28;20398;-48
2021/04/05 12:06:02;;;;;;;18.52;9.18;;;;;;;;;;4998678;28;20065;-47
2021/04/05 12:08:31;;;;;;;31.58;18.35;;;;;;;;;;4998930;28;20028;-48
2021/04/05 12:11:02;;;;;;;17.63;10.85;;;;;;;;;;4998081;28;20033;-47
2021/04/05 12:13:29;;;;;;;19.00;8.55;;;;;;;;;;4999060;28;20038;-47
2021/04/05 12:15:57;;;;;;;20.45;12.90;;;;;;;;;;4998735;28;20598;-49
2021/04/05 12:18:24;;;;;;;19.20;9.13;;;;;;;;;;4998101;28;20372;-50
2021/04/05 12:21:06;;;;;;;28.80;14.90;;;;;;;;;;4999222;28;20026;-51
2021/04/05 12:23:32;;;;;;;25.73;16.20;;;;;;;;;;4998321;28;20034;-49
2021/04/05 12:25:59;;;;;;;21.40;10.65;;;;;;;;;;4998799;28;20021;-51
2021/04/05 12:28:32;;;;;;;13.73;7.05;;;;;;;;;;4999096;28;20029;-53
2021/04/05 12:30:59;;;;;;;15.98;8.55;;;;;;;;;;4999162;28;20800;-53
2021/04/05 12:33:26;;;;;;;13.63;8.55;;;;;;;;;;4999044;28;20137;-51
2021/04/05 12:35:53;;;;;;;10.90;7.07;;;;;;;;;;4998892;28;20415;-51
2021/04/05 12:38:19;;;;;;;10.43;7.03;;;;;;;;;;4998899;28;20072;-49
2021/04/05 12:40:46;;;;;;;23.42;14.68;;;;;;;;;;4998867;28;20199;-50
2021/04/05 12:43:13;;;;;;;14.45;9.45;;;;;;;;;;4998497;28;20037;-53
2021/04/05 12:45:41;;;;;;;16.08;10.82;;;;;;;;;;4998329;28;20041;-48
2021/04/05 12:48:10;;;;;;;17.85;10.30;;;;;;;;;;4997465;28;20128;-45
2021/04/05 12:50:37;;;;;;;17.55;8.05;;;;;;;;;;4998747;28;20033;-46
2021/04/05 12:53:07;;;;;;;25.65;13.20;;;;;;;;;;4998593;28;20052;-48
2021/04/05 12:55:39;;;;;;;34.95;18.02;;;;;;;;;;4998348;28;20084;-46
2021/04/05 12:58:05;;;;;;;28.60;17.45;;;;;;;;;;4997490;28;20076;-47
2021/04/05 13:00:32;;;;;;;29.02;17.85;;;;;;;;;;4998128;28;20030;-46
2021/04/05 13:02:58;;;;;;;29.02;17.75;;;;;;;;;;4998217;28;20034;-47
2021/04/05 13:05:35;;;;;;;18.80;11.88;;;;;;;;;;4998366;28;20042;-48
2021/04/05 13:08:13;;;;;;;20.83;13.38;;;;;;;;;;4997148;28;20041;-45
2021/04/05 13:10:43;;;;;;;19.20;10.15;;;;;;;;;;4997990;28;20788;-46
2021/04/05 13:13:13;;;;;;;32.60;17.00;;;;;;;;;;4997234;28;20029;-50
2021/04/05 13:15:43;;;;;;;33.78;22.42;;;;;;;;;;4997659;28;20037;-46
2021/04/05 13:18:14;;;;;;;21.67;14.73;;;;;;;;;;4997754;28;20211;-48
2021/04/05 13:20:41;;;;;;;21.77;14.35;;;;;;;;;;4996937;28;20478;-49
2021/04/05 13:23:11;;;;;;;24.17;15.45;;;;;;;;;;4997855;28;20048;-48
2021/04/05 13:25:40;;;;;;;16.65;10.02;;;;;;;;;;4997243;28;20788;-45
2021/04/05 13:28:07;;;;;;;28.52;16.13;;;;;;;;;;4997651;28;20076;-46
2021/04/05 13:30:34;;;;;;;20.52;11.65;;;;;;;;;;4996798;28;20025;-46
2021/04/05 13:33:05;;;;;;;13.80;9.88;;;;;;;;;;4997798;28;20022;-45
2021/04/05 13:35:31;;;;;;;27.83;13.93;;;;;;;;;;4998005;28;20422;-49
2021/04/05 13:37:59;;;;;;;26.55;13.80;;;;;;;;;;4997916;28;20057;-49
2021/04/05 13:40:29;;;;;;;63.15;30.70;;;;;;;;;;4997569;28;20565;-45
2021/04/05 13:42:56;;;;;;;21.92;12.70;;;;;;;;;;4997601;28;20510;-47
2021/04/05 13:45:31;;;;;;;28.02;15.20;;;;;;;;;;4997226;28;20046;-46
2021/04/05 13:48:02;;;;;;;33.10;18.90;;;;;;;;;;4997125;28;20541;-46
2021/04/05 13:50:30;;;;;;;21.90;13.52;;;;;;;;;;4997405;28;20026;-46
2021/04/05 13:52:57;;;;;;;14.25;9.23;;;;;;;;;;4997627;28;20348;-47
2021/04/05 13:55:30;;;;;;;27.50;14.65;;;;;;;;;;4997652;28;20030;-47
2021/04/05 13:57:57;;;;;;;28.63;16.23;;;;;;;;;;4997228;28;20025;-46
2021/04/05 14:00:24;;;;;;;23.65;11.95;;;;;;;;;;4997352;28;20028;-47
2021/04/05 14:03:14;;;;;;;21.80;11.48;;;;;;;;;;4996003;28;20235;-49
2021/04/05 14:05:41;;;;;;;13.70;9.43;;;;;;;;;;4916640;29;20042;-51
2021/04/05 14:08:16;;;;;;;9.07;6.15;;;;;;;;;;4916954;29;20040;-49
2021/04/05 14:10:43;;;;;;;18.25;10.38;;;;;;;;;;4916164;29;20626;-49
2021/04/05 14:13:13;;;;;;;18.95;10.32;;;;;;;;;;4916853;29;20031;-53
2021/04/05 14:15:39;;;;;;;15.93;9.07;;;;;;;;;;4916404;29;20619;-49
2021/04/05 14:18:19;;;;;;;20.80;10.07;;;;;;;;;;4899665;29;20032;-49
2021/04/05 14:20:47;;;;;;;19.52;10.90;;;;;;;;;;4915938;29;20083;-50
2021/04/05 14:23:13;;;;;;;17.13;9.40;;;;;;;;;;4915815;29;20043;-50
2021/04/05 14:25:45;;;;;;;21.45;10.95;;;;;;;;;;4915642;29;20488;-49
2021/04/05 14:28:33;;;;;;;16.48;9.68;;;;;;;;;;4915822;29;20028;-48
2021/04/05 14:31:25;;;;;;;13.20;8.32;;;;;;;;;;4915381;29;20063;-49
2021/04/05 14:33:54;;;;;;;16.80;10.32;;;;;;;;;;4894485;29;20046;-48
2021/04/05 14:36:28;;;;;;;18.17;10.00;;;;;;;;;;4915636;29;20567;-48
2021/04/05 14:38:56;;;;;;;13.93;8.35;;;;;;;;;;4915491;29;20043;-51
2021/04/05 14:41:26;;;;;;;15.75;9.70;;;;;;;;;;4914379;29;20024;-51